Time;durP1;ratioP1;P1;durP2;ratioP2;P2;SDS_P1;SDS_P2;PMS_P1;PMS_P2;Temp;Humidity;BMP_temperature;BMP_pressure;BME280_temperature;BME280_humidity;BME280_pressure;Samples;Min_cycle;Max_cycle;Signal;HPM_P1;HPM_P2
2021/10/31 00:00:22;;;;;;;15.13;3.03;;;15.50;71.30;;;;;;5057629;28;20053;-75
2021/10/31 00:02:48;;;;;;;14.90;3.13;;;15.50;71.50;;;;;;5057626;28;20115;-75
2021/10/31 00:05:15;;;;;;;13.68;2.92;;;15.50;71.50;;;;;;5057740;28;20021;-74
2021/10/31 00:07:41;;;;;;;18.48;2.88;;;15.50;70.70;;;;;;5057968;28;20370;-74
2021/10/31 00:10:08;;;;;;;12.10;2.42;;;15.50;70.90;;;;;;5057729;28;20028;-75
2021/10/31 00:12:34;;;;;;;19.20;3.20;;;15.50;70.60;;;;;;5057892;28;20039;-74
2021/10/31 00:15:00;;;;;;;19.50;2.90;;;15.50;70.90;;;;;;5058034;28;20077;-74
2021/10/31 00:17:26;;;;;;;12.95;2.42;;;15.50;70.60;;;;;;5057677;28;20025;-74
2021/10/31 00:19:53;;;;;;;13.07;2.35;;;15.50;69.90;;;;;;5057686;28;20524;-74
2021/10/31 00:22:20;;;;;;;13.73;2.35;;;15.50;69.00;;;;;;5057607;28;20033;-74
2021/10/31 00:24:46;;;;;;;12.13;2.47;;;15.40;69.10;;;;;;5060097;28;20104;-74
2021/10/31 00:27:11;;;;;;;14.18;2.97;;;15.40;69.80;;;;;;5061209;28;20060;-74
2021/10/31 00:29:37;;;;;;;13.07;2.58;;;15.40;70.40;;;;;;5061210;28;20025;-74
2021/10/31 00:32:03;;;;;;;13.15;2.78;;;15.40;70.70;;;;;;5061117;28;20033;-74
2021/10/31 00:34:30;;;;;;;15.45;3.20;;;15.40;70.90;;;;;;5061535;28;20028;-74
2021/10/31 00:36:56;;;;;;;15.48;2.63;;;15.40;70.90;;;;;;5061243;28;20040;-74
2021/10/31 00:39:21;;;;;;;15.80;3.33;;;15.40;70.90;;;;;;5061102;28;20033;-74
2021/10/31 00:41:47;;;;;;;14.20;3.72;;;15.40;71.40;;;;;;5060908;28;20443;-74
2021/10/31 00:44:13;;;;;;;11.95;2.45;;;15.30;71.40;;;;;;5061379;28;20024;-74
2021/10/31 00:46:39;;;;;;;15.95;2.95;;;15.30;71.40;;;;;;5060624;28;20041;-74
2021/10/31 00:49:05;;;;;;;15.73;3.03;;;15.30;71.30;;;;;;5060744;28;20025;-74
2021/10/31 00:51:31;;;;;;;18.42;2.90;;;15.30;71.70;;;;;;5060822;28;20041;-74
2021/10/31 00:54:00;;;;;;;20.00;2.97;;;15.30;72.20;;;;;;5060914;28;20032;-75
2021/10/31 00:56:26;;;;;;;13.43;2.53;;;15.20;72.10;;;;;;5060864;28;20021;-74
2021/10/31 00:58:53;;;;;;;20.55;3.33;;;15.20;72.20;;;;;;5060713;28;20358;-74
2021/10/31 01:01:19;;;;;;;16.52;3.13;;;15.20;72.40;;;;;;5060810;28;20086;-74
2021/10/31 01:03:45;;;;;;;12.18;2.70;;;15.20;72.40;;;;;;5060737;28;20021;-74
2021/10/31 01:06:36;;;;;;;19.60;3.22;;;15.20;72.50;;;;;;5060460;28;20124;-74
2021/10/31 01:09:09;;;;;;;14.90;3.28;;;15.20;72.90;;;;;;5060657;28;20033;-74
2021/10/31 01:11:50;;;;;;;15.80;3.13;;;15.20;73.10;;;;;;5059324;28;20093;-74
2021/10/31 01:14:22;;;;;;;19.25;3.10;;;15.20;73.20;;;;;;5060265;28;20029;-74
2021/10/31 01:17:05;;;;;;;15.75;3.08;;;15.20;72.90;;;;;;5060558;28;20474;-75
2021/10/31 01:20:03;;;;;;;14.93;4.13;;;15.20;72.30;;;;;;5060468;28;20048;-75
2021/10/31 01:23:06;;;;;;;21.05;3.42;;;15.20;72.30;;;;;;5060652;28;20386;-75
2021/10/31 01:26:07;;;;;;;14.90;2.72;;;15.20;72.50;;;;;;5060130;28;20021;-74
2021/10/31 01:28:54;;;;;;;22.02;3.65;;;15.20;72.70;;;;;;5060125;28;20035;-74
2021/10/31 01:31:35;;;;;;;16.38;3.83;;;15.30;72.90;;;;;;5059846;28;20025;-74
2021/10/31 01:34:17;;;;;;;19.30;3.53;;;15.30;73.10;;;;;;5058651;28;20040;-74
2021/10/31 01:36:46;;;;;;;19.08;4.30;;;15.30;73.40;;;;;;5059934;28;20083;-74
2021/10/31 01:39:23;;;;;;;19.30;3.83;;;15.30;73.60;;;;;;5059955;28;20121;-74
2021/10/31 01:41:57;;;;;;;26.20;4.15;;;15.30;73.60;;;;;;5058696;28;20554;-74
2021/10/31 01:44:47;;;;;;;19.80;3.70;;;15.40;73.60;;;;;;5059814;28;20039;-75
2021/10/31 01:47:45;;;;;;;20.88;4.43;;;15.40;73.70;;;;;;5048490;28;20502;-74
2021/10/31 01:50:19;;;;;;;18.42;3.72;;;15.40;73.10;;;;;;5059969;28;20451;-74
2021/10/31 01:53:07;;;;;;;20.48;3.90;;;15.40;73.20;;;;;;5059362;28;20029;-74
2021/10/31 01:55:37;;;;;;;22.42;4.18;;;15.40;73.20;;;;;;5059531;28;20348;-74
2021/10/31 01:58:04;;;;;;;20.73;3.75;;;15.40;73.30;;;;;;5059655;28;20045;-74
2021/10/31 02:00:32;;;;;;;22.40;3.55;;;15.50;73.30;;;;;;5059392;28;20356;-74
2021/10/31 02:03:02;;;;;;;20.00;3.70;;;15.50;73.20;;;;;;5059858;28;20047;-74
2021/10/31 02:05:31;;;;;;;18.70;3.95;;;15.50;73.00;;;;;;5059362;28;20025;-74
2021/10/31 02:08:06;;;;;;;20.40;4.15;;;15.50;73.10;;;;;;5059323;28;20018;-74
2021/10/31 02:10:33;;;;;;;21.25;4.22;;;15.50;73.20;;;;;;5059277;28;20100;-75
2021/10/31 02:13:02;;;;;;;25.52;4.63;;;15.50;73.30;;;;;;5059476;28;20021;-74
2021/10/31 02:15:28;;;;;;;19.13;4.65;;;15.60;73.40;;;;;;5059110;28;20063;-75
2021/10/31 02:17:56;;;;;;;21.13;4.50;;;15.50;73.50;;;;;;5059241;28;20031;-74
2021/10/31 02:20:24;;;;;;;22.02;5.03;;;15.60;73.60;;;;;;5059371;28;20037;-74
2021/10/31 02:22:55;;;;;;;24.70;4.90;;;15.50;73.60;;;;;;5059301;28;20100;-74
2021/10/31 02:25:22;;;;;;;21.00;4.43;;;15.60;73.70;;;;;;5059328;28;20020;-74
2021/10/31 02:27:47;;;;;;;20.98;4.10;;;15.60;73.60;;;;;;5058927;28;20025;-74
2021/10/31 02:30:14;;;;;;;19.65;4.07;;;15.60;73.70;;;;;;5058948;28;20033;-74
2021/10/31 02:32:40;;;;;;;20.38;5.55;;;15.60;73.70;;;;;;5058903;28;20025;-74
2021/10/31 02:35:09;;;;;;;20.55;4.35;;;15.60;73.70;;;;;;5059161;28;20394;-74
2021/10/31 02:37:37;;;;;;;24.83;4.25;;;15.60;73.80;;;;;;5058722;28;20528;-74
2021/10/31 02:40:03;;;;;;;19.30;4.28;;;15.70;73.80;;;;;;5058867;28;20059;-74
2021/10/31 02:42:29;;;;;;;26.33;4.72;;;15.60;73.80;;;;;;5059080;28;20013;-74
2021/10/31 02:44:55;;;;;;;20.25;4.82;;;15.60;73.90;;;;;;5058706;28;20021;-74
2021/10/31 02:47:43;;;;;;;22.52;4.03;;;15.70;74.00;;;;;;5057837;28;20071;-74
2021/10/31 02:50:14;;;;;;;19.83;4.97;;;15.70;74.00;;;;;;5058792;28;20021;-75
2021/10/31 02:53:11;;;;;;;20.27;5.03;;;15.70;74.00;;;;;;5058533;28;20024;-74
2021/10/31 02:56:06;;;;;;;23.15;5.68;;;15.70;74.10;;;;;;5048436;28;20086;-74
2021/10/31 02:58:39;;;;;;;28.42;5.75;;;15.70;74.20;;;;;;5057385;28;20052;-75
2021/10/31 03:01:07;;;;;;;21.65;4.65;;;15.70;74.30;;;;;;5058416;28;20333;-74
2021/10/31 03:03:34;;;;;;;28.88;5.13;;;15.70;74.40;;;;;;5058881;28;20509;-74
2021/10/31 03:06:03;;;;;;;27.20;5.85;;;15.70;74.40;;;;;;5058629;28;20048;-74
2021/10/31 03:08:30;;;;;;;24.17;4.63;;;15.80;74.50;;;;;;5058381;28;20031;-75
2021/10/31 03:10:58;;;;;;;29.35;5.10;;;15.70;74.50;;;;;;5058514;28;20024;-75
2021/10/31 03:13:26;;;;;;;24.42;4.90;;;15.70;74.50;;;;;;5058266;28;20052;-74
2021/10/31 03:15:52;;;;;;;25.75;5.10;;;15.80;74.60;;;;;;5058356;28;20460;-74
2021/10/31 03:18:18;;;;;;;23.85;5.13;;;15.80;74.60;;;;;;5058410;28;20029;-74
2021/10/31 03:20:44;;;;;;;24.55;5.32;;;15.80;74.70;;;;;;5058306;28;20100;-74
2021/10/31 03:23:10;;;;;;;26.52;5.35;;;15.80;74.70;;;;;;5058274;28;20071;-75
2021/10/31 03:25:36;;;;;;;25.02;5.40;;;15.80;74.80;;;;;;5058401;28;20021;-74
2021/10/31 03:28:01;;;;;;;29.05;5.55;;;15.80;74.80;;;;;;5058165;28;20021;-74
2021/10/31 03:30:28;;;;;;;24.92;5.60;;;15.80;74.80;;;;;;5058483;28;20482;-74
2021/10/31 03:32:53;;;;;;;21.60;4.78;;;15.80;74.90;;;;;;5058507;28;20029;-74
2021/10/31 03:35:19;;;;;;;25.85;6.30;;;15.80;74.90;;;;;;5058289;28;20021;-74
2021/10/31 03:37:45;;;;;;;24.50;5.45;;;15.80;74.90;;;;;;5058278;28;20324;-75
2021/10/31 03:40:12;;;;;;;25.15;5.10;;;15.80;74.90;;;;;;5058121;28;20029;-74
2021/10/31 03:42:38;;;;;;;23.98;6.20;;;15.80;74.80;;;;;;5058224;28;20025;-74
2021/10/31 03:45:06;;;;;;;28.02;5.57;;;15.80;74.70;;;;;;5058423;28;20025;-74
2021/10/31 03:47:34;;;;;;;26.33;5.03;;;15.80;74.70;;;;;;5057622;28;20053;-75
2021/10/31 03:50:00;;;;;;;24.83;5.47;;;15.80;74.70;;;;;;5058056;28;20040;-74
2021/10/31 03:52:26;;;;;;;23.92;4.97;;;15.80;74.60;;;;;;5057933;28;20044;-74
2021/10/31 03:54:52;;;;;;;28.10;5.93;;;15.80;74.60;;;;;;5058095;28;20550;-74
2021/10/31 03:57:18;;;;;;;26.75;5.47;;;15.80;74.70;;;;;;5057940;28;20053;-74
2021/10/31 03:59:44;;;;;;;26.98;5.15;;;15.80;74.90;;;;;;5062007;28;20032;-74
2021/10/31 04:02:10;;;;;;;28.90;5.07;;;15.80;75.10;;;;;;5061685;28;20056;-74
2021/10/31 04:04:36;;;;;;;28.50;5.60;;;15.80;75.30;;;;;;5061655;28;20024;-74
2021/10/31 04:07:02;;;;;;;27.30;5.53;;;15.80;75.60;;;;;;5061638;28;20032;-75
2021/10/31 04:09:28;;;;;;;23.90;5.47;;;15.80;76.20;;;;;;5061987;28;20081;-75
2021/10/31 04:11:54;;;;;;;29.83;5.70;;;15.70;76.40;;;;;;5061740;28;20104;-76
2021/10/31 04:14:20;;;;;;;33.50;5.65;;;15.70;76.50;;;;;;5061494;28;20033;-76
2021/10/31 04:16:46;;;;;;;39.90;7.78;;;15.60;76.70;;;;;;5062043;28;20037;-76
2021/10/31 04:19:12;;;;;;;35.67;7.25;;;15.60;77.10;;;;;;5060940;28;20108;-76
2021/10/31 04:21:38;;;;;;;36.22;6.68;;;15.60;77.20;;;;;;5061135;28;20032;-76
2021/10/31 04:24:04;;;;;;;44.03;7.35;;;15.60;77.20;;;;;;5061061;28;20021;-76
2021/10/31 04:26:30;;;;;;;34.70;7.13;;;15.50;77.70;;;;;;5061521;28;20033;-76
2021/10/31 04:28:57;;;;;;;46.00;8.18;;;15.50;77.80;;;;;;5061398;28;20025;-76
2021/10/31 04:31:22;;;;;;;37.65;7.72;;;15.50;78.00;;;;;;5061130;28;20039;-76
2021/10/31 04:33:48;;;;;;;47.03;9.50;;;15.50;78.10;;;;;;5061480;28;20335;-76
2021/10/31 04:36:15;;;;;;;45.70;10.10;;;15.50;78.10;;;;;;5061104;28;20044;-76
2021/10/31 04:38:41;;;;;;;48.42;8.77;;;15.50;78.20;;;;;;5060959;28;20442;-76
2021/10/31 04:41:09;;;;;;;47.25;9.30;;;15.50;78.20;;;;;;5061225;28;20025;-76
2021/10/31 04:43:34;;;;;;;51.35;9.57;;;15.40;78.30;;;;;;5060740;28;20486;-76
2021/10/31 04:46:00;;;;;;;55.30;9.90;;;15.50;78.40;;;;;;5060702;28;20029;-75
2021/10/31 04:48:26;;;;;;;68.90;11.93;;;15.50;78.50;;;;;;5060808;28;20025;-75
2021/10/31 04:50:54;;;;;;;55.50;10.82;;;15.40;78.50;;;;;;5060689;28;20112;-76
2021/10/31 04:53:19;;;;;;;58.45;10.63;;;15.50;78.70;;;;;;5060859;28;20035;-76
2021/10/31 04:55:45;;;;;;;62.38;10.15;;;15.40;78.70;;;;;;5061079;28;20052;-76
2021/10/31 04:58:11;;;;;;;51.05;10.82;;;15.40;78.90;;;;;;5060787;28;20032;-76
2021/10/31 05:00:38;;;;;;;69.15;11.45;;;15.40;79.10;;;;;;5060827;28;20036;-76
2021/10/31 05:03:04;;;;;;;68.40;11.85;;;15.40;79.00;;;;;;5060993;28;20021;-76
2021/10/31 05:05:31;;;;;;;80.93;11.88;;;15.40;79.10;;;;;;5060812;28;20029;-76
2021/10/31 05:07:58;;;;;;;65.40;12.20;;;15.50;79.10;;;;;;5060512;28;20024;-76
2021/10/31 05:10:27;;;;;;;75.43;13.27;;;15.40;79.20;;;;;;5059827;28;20049;-76
2021/10/31 05:12:52;;;;;;;75.22;11.57;;;15.40;79.30;;;;;;5060474;28;20021;-76
2021/10/31 05:15:19;;;;;;;60.35;12.32;;;15.40;79.30;;;;;;5060346;28;20056;-76
2021/10/31 05:17:45;;;;;;;73.82;12.00;;;15.40;79.30;;;;;;5060524;28;20407;-76
2021/10/31 05:20:13;;;;;;;61.67;11.85;;;15.40;79.30;;;;;;5060629;28;20081;-76
2021/10/31 05:22:39;;;;;;;68.07;11.15;;;15.40;79.40;;;;;;5060404;28;20045;-76
2021/10/31 05:25:07;;;;;;;82.05;13.38;;;15.40;79.30;;;;;;5060130;28;20029;-76
2021/10/31 05:27:34;;;;;;;66.88;12.43;;;15.40;79.40;;;;;;5060265;28;20363;-76
2021/10/31 05:30:00;;;;;;;64.30;11.45;;;15.40;79.40;;;;;;5060284;28;20078;-76
2021/10/31 05:32:32;;;;;;;59.80;11.27;;;15.30;79.50;;;;;;5058988;28;20028;-76
2021/10/31 05:34:58;;;;;;;64.18;12.05;;;15.30;79.40;;;;;;5059971;28;20025;-76
2021/10/31 05:37:34;;;;;;;70.63;12.15;;;15.40;79.50;;;;;;5059959;28;20088;-76
2021/10/31 05:40:00;;;;;;;63.45;10.55;;;15.30;79.40;;;;;;5060056;28;20033;-76
2021/10/31 05:42:26;;;;;;;53.50;11.70;;;15.40;79.50;;;;;;5059800;28;20024;-76
2021/10/31 05:44:52;;;;;;;66.95;11.38;;;15.30;79.50;;;;;;5058912;28;20526;-76
2021/10/31 05:47:18;;;;;;;63.60;11.27;;;15.30;79.50;;;;;;5058565;28;20076;-76
2021/10/31 05:49:44;;;;;;;51.40;10.73;;;15.30;79.50;;;;;;5059935;28;20020;-76
2021/10/31 05:52:10;;;;;;;49.40;10.30;;;15.30;79.60;;;;;;5059403;28;20029;-76
2021/10/31 05:54:35;;;;;;;48.85;10.00;;;15.30;79.60;;;;;;5059448;28;20031;-76
2021/10/31 05:57:02;;;;;;;47.70;10.50;;;15.30;79.60;;;;;;5058156;28;20029;-76
2021/10/31 05:59:27;;;;;;;54.25;11.57;;;15.30;79.70;;;;;;5058511;28;20021;-76
2021/10/31 06:01:53;;;;;;;46.70;9.90;;;15.30;79.50;;;;;;5059245;28;20064;-76
2021/10/31 06:04:19;;;;;;;59.40;11.30;;;15.40;79.70;;;;;;5059202;28;20021;-75
2021/10/31 06:06:46;;;;;;;59.88;12.15;;;15.20;79.50;;;;;;5058087;28;20024;-76
2021/10/31 06:09:12;;;;;;;49.50;8.18;;;15.20;80.00;;;;;;5059153;28;20040;-76
2021/10/31 06:11:38;;;;;;;49.58;9.00;;;15.20;80.10;;;;;;5058915;28;20406;-76
2021/10/31 06:14:04;;;;;;;45.95;7.22;;;15.20;80.50;;;;;;5059049;28;20071;-76
2021/10/31 06:16:31;;;;;;;47.72;6.97;;;15.10;82.60;;;;;;5059387;28;20036;-76
2021/10/31 06:18:56;;;;;;;46.40;6.85;;;15.00;82.80;;;;;;5058901;28;20451;-76
2021/10/31 06:21:22;;;;;;;45.03;8.13;;;15.00;83.30;;;;;;5059156;28;20040;-76
2021/10/31 06:23:48;;;;;;;47.08;8.75;;;15.00;85.50;;;;;;5058899;28;20084;-76
2021/10/31 06:26:14;;;;;;;42.35;7.70;;;14.90;85.90;;;;;;5057781;28;20024;-76
2021/10/31 06:28:40;;;;;;;52.30;9.15;;;14.90;85.70;;;;;;5058795;28;20036;-76
2021/10/31 06:31:05;;;;;;;52.97;8.68;;;14.90;85.90;;;;;;5059023;28;20020;-76
2021/10/31 06:33:32;;;;;;;67.60;10.38;;;14.90;86.50;;;;;;5058888;28;20033;-76
2021/10/31 06:35:58;;;;;;;71.38;11.77;;;14.80;86.20;;;;;;5059014;28;20397;-76
2021/10/31 06:38:24;;;;;;;51.08;8.35;;;14.90;86.30;;;;;;5058967;28;20109;-76
2021/10/31 06:40:50;;;;;;;49.13;7.57;;;14.90;86.50;;;;;;5059107;28;20048;-76
2021/10/31 06:43:16;;;;;;;51.45;7.07;;;14.90;87.80;;;;;;5058842;28;20390;-76
2021/10/31 06:45:42;;;;;;;45.90;7.13;;;14.90;87.90;;;;;;5058844;28;20041;-76
2021/10/31 06:48:08;;;;;;;48.97;7.30;;;14.90;88.30;;;;;;5058514;28;20033;-76
2021/10/31 06:50:34;;;;;;;42.08;6.97;;;14.90;90.90;;;;;;5058674;28;20047;-76
2021/10/31 06:53:02;;;;;;;39.55;6.45;;;14.90;90.80;;;;;;5058626;28;20045;-76
2021/10/31 06:55:28;;;;;;;43.65;7.70;;;14.80;90.80;;;;;;5058555;28;20025;-77
2021/10/31 06:57:55;;;;;;;53.25;7.63;;;14.80;90.80;;;;;;5058803;28;20495;-76
2021/10/31 07:00:22;;;;;;;51.92;7.35;;;14.80;90.70;;;;;;5058081;28;20129;-75
2021/10/31 07:02:48;;;;;;;46.58;7.30;;;14.80;90.70;;;;;;5058287;28;20462;-75
2021/10/31 07:05:14;;;;;;;42.30;7.32;;;14.80;90.70;;;;;;5058621;28;20017;-81
2021/10/31 07:07:40;;;;;;;46.53;8.45;;;14.80;90.60;;;;;;5058311;28;20039;-75
2021/10/31 07:10:06;;;;;;;34.42;5.55;;;14.80;90.60;;;;;;5058001;28;20021;-75
2021/10/31 07:12:32;;;;;;;41.97;6.25;;;14.80;96.50;;;;;;5058149;28;20037;-76
2021/10/31 07:14:59;;;;;;;40.85;6.13;;;14.80;98.10;;;;;;5058446;28;20017;-76
2021/10/31 07:17:25;;;;;;;30.00;4.72;;;14.80;99.90;;;;;;5057935;28;20037;-76
2021/10/31 07:19:50;;;;;;;32.13;4.97;;;14.90;99.90;;;;;;5057642;28;20025;-77
2021/10/31 07:22:18;;;;;;;34.58;5.00;;;14.80;99.90;;;;;;5058036;28;20035;-77
2021/10/31 07:24:48;;;;;;;34.95;5.20;;;14.80;99.90;;;;;;5058230;28;20017;-77
2021/10/31 07:27:14;;;;;;;36.13;5.53;;;14.80;99.90;;;;;;5057425;28;20025;-77
2021/10/31 07:29:40;;;;;;;32.28;4.68;;;14.90;99.90;;;;;;5058276;28;20029;-77
2021/10/31 07:32:07;;;;;;;29.75;4.88;;;14.80;99.90;;;;;;5058119;28;20029;-76
2021/10/31 07:34:32;;;;;;;37.40;5.45;;;14.80;99.90;;;;;;5062286;28;20029;-74
2021/10/31 07:36:58;;;;;;;31.63;5.65;;;14.70;99.90;;;;;;5062148;28;20139;-77
2021/10/31 07:39:24;;;;;;;30.50;6.25;;;14.60;99.90;;;;;;5061916;28;20036;-77
2021/10/31 07:41:50;;;;;;;26.73;4.75;;;14.40;99.90;;;;;;5062115;28;20056;-77
2021/10/31 07:44:17;;;;;;;19.73;3.17;;;14.20;99.90;;;;;;5062098;28;20036;-78
2021/10/31 07:46:42;;;;;;;18.73;4.22;;;14.10;99.90;;;;;;5061804;28;20106;-76
2021/10/31 07:49:10;;;;;;;23.85;4.40;;;14.10;99.90;;;;;;5061982;28;20040;-80
2021/10/31 07:51:36;;;;;;;20.92;4.72;;;13.90;99.90;;;;;;5061981;28;20064;-80
2021/10/31 07:54:02;;;;;;;20.98;4.18;;;14.00;99.90;;;;;;5061741;28;20029;-78
2021/10/31 07:56:32;;;;;;;22.60;4.40;;;14.00;99.90;;;;;;5061711;28;20067;-78
2021/10/31 07:58:57;;;;;;;22.23;5.78;;;14.00;99.90;;;;;;5062207;28;20118;-78
2021/10/31 08:01:24;;;;;;;23.60;4.57;;;13.90;99.90;;;;;;5061696;28;20063;-79
2021/10/31 08:03:53;;;;;;;22.00;4.50;;;13.90;96.70;;;;;;5061517;28;20021;-79
2021/10/31 08:06:20;;;;;;;16.63;3.97;;;13.90;96.10;;;;;;5060477;28;20171;-78
2021/10/31 08:08:47;;;;;;;27.45;5.53;;;13.90;95.20;;;;;;5061826;28;20147;-78
2021/10/31 08:11:12;;;;;;;24.58;4.88;;;13.80;88.40;;;;;;5060365;28;20500;-78
2021/10/31 08:13:39;;;;;;;32.22;5.43;;;13.70;91.10;;;;;;5061313;28;20052;-78
2021/10/31 08:16:05;;;;;;;35.35;6.90;;;13.70;93.60;;;;;;5061540;28;20029;-77
2021/10/31 08:18:31;;;;;;;30.85;6.22;;;13.70;91.90;;;;;;5061491;28;20040;-76
2021/10/31 08:20:57;;;;;;;28.27;5.40;;;13.80;86.50;;;;;;5061355;28;20021;-77
2021/10/31 08:23:23;;;;;;;24.73;5.65;;;13.90;83.10;;;;;;5061396;28;20035;-77
2021/10/31 08:25:50;;;;;;;25.60;4.65;;;14.10;83.10;;;;;;5061022;28;20025;-80
2021/10/31 08:28:18;;;;;;;28.45;4.40;;;14.00;82.80;;;;;;5061120;28;20463;-79
2021/10/31 08:30:48;;;;;;;17.88;3.88;;;13.80;82.50;;;;;;5061257;28;20025;-81
2021/10/31 08:33:19;;;;;;;24.98;4.20;;;13.70;82.50;;;;;;5060507;28;20119;-78
2021/10/31 08:35:46;;;;;;;22.85;4.25;;;13.60;82.10;;;;;;5059649;28;20033;-78
2021/10/31 08:38:13;;;;;;;24.38;4.68;;;13.70;83.00;;;;;;5060461;28;20033;-79
2021/10/31 08:40:40;;;;;;;18.38;3.65;;;13.60;81.30;;;;;;5060751;28;20029;-79
2021/10/31 08:43:08;;;;;;;18.92;4.20;;;13.70;82.00;;;;;;5060763;28;20101;-85
2021/10/31 08:45:36;;;;;;;21.45;3.78;;;13.90;81.40;;;;;;5059384;28;20021;-81
2021/10/31 08:48:02;;;;;;;17.40;3.97;;;14.20;80.70;;;;;;5060057;28;20045;-87
2021/10/31 08:50:28;;;;;;;16.33;4.18;;;14.20;79.40;;;;;;5059746;28;20112;-78
2021/10/31 08:52:54;;;;;;;17.08;3.42;;;14.00;79.10;;;;;;5060139;28;20021;-78
2021/10/31 08:55:20;;;;;;;24.45;3.90;;;13.80;79.90;;;;;;5060152;28;20039;-79
2021/10/31 08:57:46;;;;;;;21.35;4.22;;;13.70;79.90;;;;;;5060602;28;20055;-79
2021/10/31 09:00:12;;;;;;;24.92;4.43;;;13.80;80.10;;;;;;5059950;28;20025;-79
2021/10/31 09:02:39;;;;;;;20.85;4.38;;;13.90;78.90;;;;;;5060233;28;20025;-79
2021/10/31 09:05:06;;;;;;;20.77;3.80;;;14.00;77.70;;;;;;5060882;28;20151;-82
2021/10/31 09:07:32;;;;;;;26.77;4.13;;;14.10;77.90;;;;;;5060333;28;20564;-81
2021/10/31 09:09:59;;;;;;;19.73;4.72;;;14.10;77.10;;;;;;5060029;28;20404;-81
2021/10/31 09:12:25;;;;;;;20.33;3.92;;;14.00;77.90;;;;;;5060500;28;20033;-83
2021/10/31 09:14:51;;;;;;;27.45;3.75;;;14.00;76.50;;;;;;5060098;28;20132;-81
2021/10/31 09:17:17;;;;;;;19.85;3.72;;;14.00;70.50;;;;;;5060307;28;20053;-81
2021/10/31 09:19:43;;;;;;;19.00;4.57;;;14.00;72.50;;;;;;5060213;28;20077;-81
2021/10/31 09:22:10;;;;;;;18.73;3.88;;;14.10;74.40;;;;;;5060663;28;20032;-81
2021/10/31 09:24:37;;;;;;;15.57;3.80;;;14.20;72.40;;;;;;5060158;28;20114;-81
2021/10/31 09:27:03;;;;;;;20.25;3.70;;;14.30;70.50;;;;;;5060139;28;20024;-81
2021/10/31 09:29:30;;;;;;;18.98;4.20;;;14.40;72.40;;;;;;5060226;28;20473;-81
2021/10/31 09:32:00;;;;;;;19.38;3.90;;;14.50;72.10;;;;;;5058902;28;20076;-80
2021/10/31 09:34:28;;;;;;;19.83;5.35;;;14.60;70.20;;;;;;5060030;28;20035;-80
2021/10/31 09:36:56;;;;;;;17.35;4.15;;;14.80;71.00;;;;;;5060018;28;20035;-80
2021/10/31 09:39:21;;;;;;;18.20;4.15;;;15.00;68.50;;;;;;5059812;28;20104;-80
2021/10/31 09:41:49;;;;;;;21.90;4.22;;;15.30;66.10;;;;;;5059972;28;20056;-81
2021/10/31 09:44:27;;;;;;;24.10;5.28;;;15.50;66.70;;;;;;5059701;28;20037;-80
2021/10/31 09:46:53;;;;;;;23.33;4.75;;;15.50;68.00;;;;;;5059380;28;20398;-80
2021/10/31 09:49:20;;;;;;;21.73;4.68;;;15.40;67.50;;;;;;5059786;28;20048;-81
2021/10/31 09:51:50;;;;;;;21.98;3.97;;;15.70;67.70;;;;;;5059578;28;20041;-80
2021/10/31 09:54:17;;;;;;;24.92;5.35;;;15.80;66.70;;;;;;5058503;28;20043;-80
2021/10/31 09:56:44;;;;;;;22.70;4.60;;;16.00;68.50;;;;;;5059216;28;20474;-79
2021/10/31 09:59:14;;;;;;;15.95;4.07;;;16.20;68.70;;;;;;5059420;28;20083;-79
2021/10/31 10:04:37;;;;;;;15.98;4.20;;;16.10;65.70;;;;;;5059818;28;20526;-79
2021/10/31 10:07:05;;;;;;;18.52;4.18;;;16.10;66.60;;;;;;5059364;28;20037;-79
2021/10/31 10:09:33;;;;;;;14.38;3.88;;;16.10;65.70;;;;;;5059534;28;20057;-79
2021/10/31 10:12:13;;;;;;;19.10;3.53;;;16.20;64.90;;;;;;5059219;28;20036;-80
2021/10/31 10:14:40;;;;;;;15.88;3.88;;;16.60;64.20;;;;;;5059279;28;20031;-80
2021/10/31 10:17:11;;;;;;;20.02;4.47;;;17.10;65.30;;;;;;5059409;28;20422;-80
2021/10/31 10:19:50;;;;;;;17.10;4.00;;;17.40;62.40;;;;;;5059470;28;20516;-80
2021/10/31 10:22:19;;;;;;;15.93;3.75;;;17.40;63.10;;;;;;5059559;28;20094;-80
2021/10/31 10:24:54;;;;;;;16.85;3.75;;;17.40;65.10;;;;;;5058962;28;20021;-80
2021/10/31 10:27:24;;;;;;;17.05;3.95;;;17.70;61.80;;;;;;5058988;28;20032;-80
2021/10/31 10:29:51;;;;;;;15.98;3.35;;;17.50;60.90;;;;;;5059037;28;20100;-81
2021/10/31 10:32:22;;;;;;;16.88;3.55;;;17.70;62.10;;;;;;5059121;28;20103;-80
2021/10/31 10:34:49;;;;;;;13.95;3.10;;;17.60;62.70;;;;;;5058956;28;20155;-80
2021/10/31 10:37:20;;;;;;;16.60;2.80;;;17.60;61.20;;;;;;5059184;28;20045;-80
2021/10/31 10:39:55;;;;;;;15.05;3.17;;;17.70;61.10;;;;;;5058745;28;20021;-80
2021/10/31 10:42:45;;;;;;;17.73;3.20;;;17.70;60.60;;;;;;5058999;28;20021;-80
2021/10/31 10:45:14;;;;;;;13.50;3.33;;;17.60;59.90;;;;;;5058858;28;20416;-80
2021/10/31 10:47:53;;;;;;;13.32;3.15;;;17.80;62.20;;;;;;5058375;28;20073;-80
2021/10/31 10:50:21;;;;;;;13.07;2.65;;;18.10;59.10;;;;;;5058917;28;20025;-80
2021/10/31 10:52:47;;;;;;;11.60;3.05;;;17.90;60.80;;;;;;5057580;28;20029;-79
2021/10/31 10:55:16;;;;;;;13.00;2.78;;;18.10;60.00;;;;;;5058588;28;20056;-79
2021/10/31 10:57:54;;;;;;;12.90;3.53;;;18.30;60.70;;;;;;5058046;28;20029;-79
2021/10/31 11:00:27;;;;;;;11.57;2.58;;;18.20;58.50;;;;;;5059139;28;20039;-79
2021/10/31 11:03:07;;;;;;;11.43;2.40;;;18.30;54.40;;;;;;5058878;28;20036;-80
2021/10/31 11:05:36;;;;;;;15.10;2.58;;;18.20;56.70;;;;;;5058012;28;20023;-77
2021/10/31 11:08:07;;;;;;;9.80;2.17;;;18.00;56.50;;;;;;5057980;28;20025;-86
2021/10/31 11:10:33;;;;;;;12.55;2.97;;;17.90;57.10;;;;;;5058747;28;20025;-86
2021/10/31 11:13:03;;;;;;;15.27;2.63;;;17.70;57.30;;;;;;5058669;28;20032;-84
2021/10/31 11:15:32;;;;;;;12.43;2.72;;;17.60;60.80;;;;;;5058579;28;20036;-84
2021/10/31 11:18:00;;;;;;;11.32;2.67;;;17.70;58.30;;;;;;5058184;28;20025;-85
2021/10/31 11:20:32;;;;;;;12.98;2.22;;;17.90;56.70;;;;;;5058485;28;20025;-84
2021/10/31 11:23:01;;;;;;;14.73;2.38;;;17.80;58.50;;;;;;5058602;28;20064;-84
2021/10/31 11:25:30;;;;;;;12.48;2.88;;;18.10;56.30;;;;;;5058740;28;20324;-84
2021/10/31 11:27:58;;;;;;;12.68;2.97;;;18.30;53.80;;;;;;5058696;28;20054;-83
2021/10/31 11:30:25;;;;;;;10.98;2.72;;;18.40;55.40;;;;;;5058469;28;20029;-84
2021/10/31 11:32:51;;;;;;;14.60;2.70;;;18.30;53.90;;;;;;5058699;28;20040;-84
2021/10/31 11:35:20;;;;;;;17.08;3.60;;;18.40;58.00;;;;;;5058431;28;20112;-83
2021/10/31 11:38:05;;;;;;;15.45;3.63;;;18.40;56.40;;;;;;5059094;28;20029;-84
2021/10/31 11:40:46;;;;;;;17.27;3.88;;;18.50;56.20;;;;;;5058500;28;20087;-84
2021/10/31 11:43:20;;;;;;;16.73;3.95;;;18.70;56.90;;;;;;5058565;28;20032;-84
2021/10/31 11:45:48;;;;;;;18.92;3.80;;;19.00;57.10;;;;;;5058403;28;20029;-84
2021/10/31 11:48:23;;;;;;;10.93;2.80;;;19.40;58.50;;;;;;5058685;28;20358;-83
2021/10/31 11:51:01;;;;;;;13.02;3.33;;;19.30;54.90;;;;;;5058488;28;20045;-84
2021/10/31 11:53:29;;;;;;;14.35;3.80;;;19.20;54.30;;;;;;5058172;28;20344;-84
2021/10/31 11:56:04;;;;;;;13.95;3.30;;;19.00;54.20;;;;;;5057154;28;20029;-84
2021/10/31 11:58:38;;;;;;;14.40;3.38;;;19.50;54.10;;;;;;5058563;28;20030;-90
2021/10/31 12:01:22;;;;;;;9.20;2.90;;;19.70;53.90;;;;;;5059613;28;20082;-89
2021/10/31 12:03:59;;;;;;;13.18;2.97;;;19.80;50.40;;;;;;5058002;28;20071;-90
2021/10/31 12:06:25;;;;;;;9.95;3.05;;;19.80;50.90;;;;;;5056225;28;20052;-92
2021/10/31 12:08:59;;;;;;;15.13;3.50;;;19.60;51.50;;;;;;5057758;28;20024;-90
2021/10/31 12:11:30;;;;;;;15.23;2.83;;;19.80;50.40;;;;;;5056822;28;20035;-92
2021/10/31 12:14:11;;;;;;;13.93;3.35;;;20.10;50.70;;;;;;5057792;28;20060;-90
2021/10/31 12:16:57;;;;;;;11.07;2.58;;;20.20;48.00;;;;;;5057834;28;20037;-91
2021/10/31 12:20:06;;;;;;;15.30;3.67;;;20.60;47.50;;;;;;5059688;28;20033;-90
2021/10/31 12:22:37;;;;;;;13.80;3.78;;;20.70;47.90;;;;;;5051914;28;20495;-91
2021/10/31 12:25:08;;;;;;;10.98;3.42;;;20.90;48.30;;;;;;5060259;28;20029;-91
2021/10/31 12:27:52;;;;;;;11.60;2.80;;;21.10;48.40;;;;;;5060603;28;20071;-91
2021/10/31 12:30:47;;;;;;;14.23;3.00;;;21.30;45.60;;;;;;5060342;28;20091;-89
2021/10/31 12:36:01;;;;;;;15.35;3.63;;;20.90;47.00;;;;;;5061468;28;20037;-89
2021/10/31 12:38:27;;;;;;;13.30;2.97;;;20.40;47.70;;;;;;5059877;28;20053;-89
2021/10/31 12:41:05;;;;;;;13.38;3.05;;;19.90;46.50;;;;;;5061413;28;20040;-87
2021/10/31 12:43:44;;;;;;;15.25;3.13;;;19.60;48.60;;;;;;5060103;28;20017;-85
2021/10/31 12:46:30;;;;;;;21.60;3.58;;;19.40;48.80;;;;;;5060532;28;20374;-87
2021/10/31 12:49:01;;;;;;;17.60;3.30;;;19.00;52.80;;;;;;5061068;28;20039;-86
2021/10/31 12:51:49;;;;;;;11.18;2.60;;;18.30;64.50;;;;;;5062367;28;20439;-87